Time;durP1;ratioP1;P1;durP2;ratioP2;P2;SDS_P1;SDS_P2;PMS_P1;PMS_P2;Temp;Humidity;BMP_temperature;BMP_pressure;BME280_temperature;BME280_humidity;BME280_pressure;Samples;Min_cycle;Max_cycle;Signal;HPM_P1;HPM_P2
2023/05/08 00:01:25;;;;;;;10.10;7.25;;;17.20;97.80;;;;;;10447212;28;20029;-67
2023/05/08 00:06:28;;;;;;;8.45;6.65;;;17.20;97.80;;;;;;10442690;28;20546;-67
2023/05/08 00:11:29;;;;;;;10.15;6.43;;;17.20;97.80;;;;;;10449629;28;20028;-67
2023/05/08 00:16:31;;;;;;;12.57;7.15;;;17.20;97.80;;;;;;10457698;28;20021;-68
2023/05/08 00:21:31;;;;;;;9.88;6.78;;;17.10;97.80;;;;;;10456587;28;20074;-67
2023/05/08 00:26:32;;;;;;;9.82;6.88;;;17.10;97.80;;;;;;10460160;28;20075;-66
2023/05/08 00:31:32;;;;;;;10.07;7.15;;;17.10;97.70;;;;;;10458558;28;20013;-67
2023/05/08 00:36:33;;;;;;;9.18;7.10;;;17.10;97.70;;;;;;10445123;28;20032;-67
2023/05/08 00:41:34;;;;;;;11.07;7.20;;;17.00;97.70;;;;;;10449333;28;20430;-67
2023/05/08 00:46:35;;;;;;;10.40;7.35;;;17.00;97.70;;;;;;10450890;28;20280;-67
2023/05/08 00:51:36;;;;;;;10.07;7.07;;;17.00;97.80;;;;;;10440580;28;20112;-67
2023/05/08 00:56:37;;;;;;;9.13;6.88;;;17.00;97.70;;;;;;10442310;28;20017;-67
2023/05/08 01:01:39;;;;;;;11.35;7.40;;;16.90;97.70;;;;;;10448387;28;20502;-67
2023/05/08 01:06:40;;;;;;;9.95;7.25;;;16.90;97.70;;;;;;10451307;28;20538;-67
2023/05/08 01:11:47;;;;;;;11.38;7.57;;;16.90;97.70;;;;;;10434700;28;20024;-67
2023/05/08 01:17:23;;;;;;;9.57;6.60;;;16.90;97.70;;;;;;10452772;28;20074;-67
2023/05/08 01:22:41;;;;;;;10.05;7.50;;;16.80;97.60;;;;;;10436436;28;20198;-67
2023/05/08 01:28:03;;;;;;;8.82;6.80;;;16.80;97.70;;;;;;10440572;28;20036;-67
2023/05/08 01:33:19;;;;;;;11.25;7.22;;;16.80;97.70;;;;;;10431616;28;20311;-67
2023/05/08 01:38:31;;;;;;;9.25;6.75;;;16.80;97.70;;;;;;10436619;28;20113;-67
2023/05/08 01:43:38;;;;;;;10.02;7.53;;;16.70;97.70;;;;;;10441611;28;20017;-67
2023/05/08 01:48:45;;;;;;;10.07;7.13;;;16.70;97.70;;;;;;10443536;28;20212;-67
2023/05/08 01:53:51;;;;;;;9.97;7.20;;;16.70;97.90;;;;;;10457248;28;20025;-67
2023/05/08 01:58:53;;;;;;;10.23;7.57;;;16.70;97.70;;;;;;10454915;28;20691;-67
2023/05/08 02:03:56;;;;;;;10.63;7.68;;;16.60;97.70;;;;;;10443524;28;20020;-67
2023/05/08 02:08:57;;;;;;;11.60;7.57;;;16.60;97.80;;;;;;10439749;28;20021;-67
2023/05/08 02:14:00;;;;;;;11.73;7.70;;;16.60;97.70;;;;;;10445516;28;20024;-67
2023/05/08 02:19:03;;;;;;;11.43;7.07;;;16.60;97.70;;;;;;10441380;28;20025;-67
2023/05/08 02:24:05;;;;;;;9.15;6.70;;;16.60;97.70;;;;;;10438509;28;20028;-67
2023/05/08 02:29:07;;;;;;;10.93;7.47;;;16.50;97.60;;;;;;10444414;28;20024;-67
2023/05/08 02:34:09;;;;;;;11.38;7.72;;;16.50;97.60;;;;;;10437672;28;20032;-66
2023/05/08 02:39:13;;;;;;;9.88;7.13;;;16.50;97.60;;;;;;10437981;28;20500;-67
2023/05/08 02:44:15;;;;;;;11.40;7.65;;;16.50;97.60;;;;;;10447621;28;20033;-67
2023/05/08 02:49:31;;;;;;;10.05;7.13;;;16.40;97.60;;;;;;10458227;28;20033;-66
2023/05/08 02:54:35;;;;;;;10.75;7.57;;;16.40;97.60;;;;;;10449407;28;20033;-67
2023/05/08 02:59:41;;;;;;;10.52;7.13;;;16.40;97.60;;;;;;10447988;28;20025;-67
2023/05/08 03:04:50;;;;;;;9.38;7.15;;;16.30;97.60;;;;;;10445496;28;20033;-67
2023/05/08 03:09:59;;;;;;;11.43;7.22;;;16.30;97.80;;;;;;10442744;28;20077;-67
2023/05/08 03:15:05;;;;;;;;;;;16.30;97.60;;;;;;10440585;28;20456;-67
2023/05/08 03:20:08;;;;;;;10.10;7.35;;;16.30;97.50;;;;;;10441161;28;19905;-67
2023/05/08 03:25:12;;;;;;;11.20;7.85;;;16.30;97.60;;;;;;10439872;28;20413;-67
2023/05/08 03:30:15;;;;;;;9.70;6.80;;;16.20;97.60;;;;;;10444145;28;20100;-67
2023/05/08 03:35:16;;;;;;;12.57;8.23;;;16.20;97.60;;;;;;10443302;28;20056;-67
2023/05/08 03:40:17;;;;;;;9.20;6.57;;;16.20;97.60;;;;;;10439536;28;20336;-67
2023/05/08 03:45:19;;;;;;;11.35;7.03;;;16.10;97.50;;;;;;10454086;28;20485;-67
2023/05/08 03:50:21;;;;;;;13.68;7.88;;;16.10;97.50;;;;;;10441918;28;20416;-67
2023/05/08 03:55:22;;;;;;;9.68;6.78;;;16.10;97.50;;;;;;10448872;28;20487;-67
2023/05/08 04:00:48;;;;;;;10.45;7.60;;;16.10;97.50;;;;;;10455426;28;20028;-67
2023/05/08 04:06:30;;;;;;;11.43;7.47;;;16.00;97.40;;;;;;10433941;28;20024;-67
2023/05/08 04:11:36;;;;;;;10.45;7.28;;;16.00;97.40;;;;;;10443020;28;20025;-67
2023/05/08 04:16:39;;;;;;;11.85;8.10;;;16.00;97.50;;;;;;10445953;28;20093;-68
2023/05/08 04:21:42;;;;;;;9.85;7.07;;;16.00;97.50;;;;;;10440404;28;20112;-68
2023/05/08 04:26:44;;;;;;;10.38;7.10;;;15.90;97.40;;;;;;10439344;28;20029;-68
2023/05/08 04:31:45;;;;;;;11.38;7.53;;;16.00;97.40;;;;;;10444305;28;20484;-68
2023/05/08 04:36:47;;;;;;;10.32;7.32;;;15.90;97.40;;;;;;10442242;28;20433;-68
2023/05/08 04:41:50;;;;;;;11.35;7.18;;;15.90;97.40;;;;;;10456675;28;20025;-68
2023/05/08 04:46:50;;;;;;;10.90;7.53;;;15.90;97.40;;;;;;10452080;28;20025;-67
2023/05/08 04:51:51;;;;;;;11.93;7.53;;;15.90;97.40;;;;;;10442241;28;20512;-67
2023/05/08 04:56:51;;;;;;;10.10;7.38;;;15.90;97.40;;;;;;10452443;28;20023;-67
2023/05/08 05:01:52;;;;;;;9.85;6.90;;;15.90;97.30;;;;;;10439371;28;20029;-68
2023/05/08 05:06:53;;;;;;;9.77;6.97;;;15.90;97.60;;;;;;10436515;28;20633;-67
2023/05/08 05:11:53;;;;;;;10.48;7.13;;;15.90;97.30;;;;;;10442902;28;20013;-67
2023/05/08 05:16:54;;;;;;;10.85;7.40;;;15.90;97.30;;;;;;10453946;28;20412;-67
2023/05/08 05:21:55;;;;;;;11.35;7.85;;;15.80;97.30;;;;;;10455568;28;20037;-67
2023/05/08 05:26:55;;;;;;;10.10;6.57;;;15.80;97.20;;;;;;10450688;28;20119;-67
2023/05/08 05:31:56;;;;;;;10.35;7.97;;;15.80;97.20;;;;;;10449994;28;20068;-67
2023/05/08 05:36:57;;;;;;;9.88;6.88;;;15.80;97.20;;;;;;10447913;28;20021;-67
2023/05/08 05:41:57;;;;;;;9.18;6.60;;;15.90;97.20;;;;;;10448194;28;20400;-67
2023/05/08 05:46:58;;;;;;;10.63;7.28;;;15.80;97.10;;;;;;10441977;28;20075;-67
2023/05/08 05:51:58;;;;;;;10.93;6.90;;;15.80;97.10;;;;;;10450870;28;20275;-67
2023/05/08 05:56:59;;;;;;;9.13;6.70;;;16.20;97.20;;;;;;10458263;28;20107;-68
2023/05/08 06:02:00;;;;;;;10.63;6.88;;;15.80;97.10;;;;;;10435578;28;20028;-67
2023/05/08 06:07:01;;;;;;;8.68;6.25;;;15.80;97.00;;;;;;10444485;28;20023;-67
2023/05/08 06:12:01;;;;;;;9.23;6.50;;;15.70;97.00;;;;;;10443102;28;20272;-67
2023/05/08 06:17:02;;;;;;;9.88;6.30;;;15.80;97.00;;;;;;10439942;28;20443;-67
2023/05/08 06:22:02;;;;;;;8.98;6.57;;;15.70;97.00;;;;;;10446170;28;20032;-67
2023/05/08 06:27:03;;;;;;;9.65;6.65;;;15.80;97.00;;;;;;10445412;28;20028;-67
2023/05/08 06:32:04;;;;;;;8.70;6.57;;;15.80;97.00;;;;;;10446288;28;20032;-67
2023/05/08 06:37:05;;;;;;;7.22;5.70;;;15.80;97.00;;;;;;10442513;28;20489;-67
2023/05/08 06:42:06;;;;;;;7.47;6.00;;;15.70;96.90;;;;;;10438033;28;20027;-67
2023/05/08 06:47:07;;;;;;;8.80;5.88;;;15.80;96.90;;;;;;10451074;28;20107;-67
2023/05/08 06:52:07;;;;;;;7.15;5.50;;;15.70;96.90;;;;;;10441467;28;20432;-67
2023/05/08 06:57:08;;;;;;;8.30;5.97;;;15.70;96.90;;;;;;10447323;28;20032;-67
2023/05/08 07:02:09;;;;;;;8.10;6.18;;;15.70;96.90;;;;;;10436937;28;20420;-67
2023/05/08 07:07:10;;;;;;;8.45;5.95;;;15.70;96.90;;;;;;10429921;28;20496;-67
2023/05/08 07:12:11;;;;;;;9.88;7.03;;;15.80;96.90;;;;;;10432879;28;20021;-67
2023/05/08 07:17:11;;;;;;;8.50;6.28;;;15.80;96.90;;;;;;10437931;28;20033;-67
2023/05/08 07:22:12;;;;;;;9.15;6.38;;;15.80;96.80;;;;;;10432162;28;20460;-67
2023/05/08 07:27:13;;;;;;;7.07;5.05;;;15.80;96.80;;;;;;10426524;28;20127;-67
2023/05/08 07:32:14;;;;;;;10.13;6.32;;;15.80;96.80;;;;;;10436734;28;20060;-67
2023/05/08 07:37:14;;;;;;;8.70;6.30;;;15.80;96.80;;;;;;10442590;28;20124;-67
2023/05/08 07:42:17;;;;;;;10.05;6.43;;;15.80;96.80;;;;;;10437023;28;20030;-67
2023/05/08 07:47:17;;;;;;;9.00;5.90;;;15.90;96.70;;;;;;10438058;28;20029;-67
2023/05/08 07:52:18;;;;;;;7.88;6.22;;;15.90;96.70;;;;;;10437253;28;20029;-67
2023/05/08 07:57:18;;;;;;;7.78;6.20;;;16.00;96.60;;;;;;10447962;28;20103;-67
2023/05/08 08:02:19;;;;;;;8.80;6.00;;;16.00;96.60;;;;;;10444067;28;20028;-67
2023/05/08 08:07:20;;;;;;;7.55;5.63;;;16.10;96.50;;;;;;10435726;28;20087;-67
2023/05/08 08:12:22;;;;;;;7.63;5.63;;;16.10;96.50;;;;;;10436540;28;20021;-67
2023/05/08 08:17:23;;;;;;;8.10;6.20;;;16.20;96.40;;;;;;10436625;28;20033;-67
2023/05/08 08:22:24;;;;;;;7.65;5.47;;;16.20;96.40;;;;;;10438627;28;20033;-67
2023/05/08 08:27:25;;;;;;;8.07;5.63;;;16.30;96.40;;;;;;10438653;28;20499;-67
2023/05/08 08:32:25;;;;;;;6.97;4.93;;;16.30;96.40;;;;;;10442650;28;20124;-67
2023/05/08 08:37:26;;;;;;;9.13;6.10;;;16.30;96.60;;;;;;10437410;28;20036;-67
2023/05/08 08:42:27;;;;;;;9.80;6.38;;;16.30;96.30;;;;;;10442246;28;20533;-67
2023/05/08 08:47:33;;;;;;;7.47;5.50;;;16.40;96.30;;;;;;10444075;28;20500;-67
2023/05/08 08:52:54;;;;;;;7.80;5.68;;;16.40;96.30;;;;;;10438818;28;20017;-67
2023/05/08 08:58:01;;;;;;;10.10;6.82;;;16.40;96.30;;;;;;10435057;28;20281;-67
2023/05/08 09:03:04;;;;;;;9.82;6.07;;;16.50;96.30;;;;;;10442344;28;20457;-67
2023/05/08 09:08:06;;;;;;;8.75;6.50;;;16.50;96.30;;;;;;10442333;28;20025;-67
2023/05/08 09:13:15;;;;;;;8.02;6.32;;;16.50;96.30;;;;;;10431587;28;20021;-67
2023/05/08 09:18:16;;;;;;;9.93;6.53;;;16.50;96.30;;;;;;10434486;28;20055;-67
2023/05/08 09:23:17;;;;;;;9.18;6.50;;;16.60;96.30;;;;;;10447758;28;20116;-67
2023/05/08 09:28:23;;;;;;;8.40;6.20;;;16.60;96.30;;;;;;10434113;28;20087;-67
2023/05/08 09:33:26;;;;;;;9.32;6.65;;;16.60;96.30;;;;;;10437287;28;20026;-67
2023/05/08 09:38:38;;;;;;;8.65;6.32;;;16.70;96.30;;;;;;10436779;28;20048;-67
2023/05/08 09:43:38;;;;;;;8.60;6.50;;;16.70;96.30;;;;;;10429051;28;20029;-67
2023/05/08 09:48:39;;;;;;;10.45;6.65;;;16.80;96.30;;;;;;10431055;28;20485;-67
2023/05/08 09:53:40;;;;;;;9.75;6.95;;;16.90;96.20;;;;;;10431047;28;20029;-67
2023/05/08 09:58:42;;;;;;;11.73;7.40;;;17.00;96.20;;;;;;10443035;28;20032;-67
2023/05/08 10:03:50;;;;;;;10.45;7.32;;;17.00;96.20;;;;;;10434373;28;20037;-67
2023/05/08 10:09:11;;;;;;;10.13;7.38;;;17.00;96.10;;;;;;10430434;28;20026;-67
2023/05/08 10:14:11;;;;;;;11.95;7.90;;;17.10;96.30;;;;;;10430156;28;20036;-68
2023/05/08 10:19:17;;;;;;;13.73;7.70;;;17.30;96.10;;;;;;10435760;28;20024;-67
2023/05/08 10:24:19;;;;;;;9.90;7.38;;;17.40;96.20;;;;;;10436216;28;20025;-66
2023/05/08 10:29:28;;;;;;;9.68;7.13;;;17.40;96.10;;;;;;10432128;28;20033;-66
2023/05/08 10:34:31;;;;;;;11.23;8.02;;;17.60;96.10;;;;;;10432962;28;20032;-67
2023/05/08 10:39:33;;;;;;;12.73;7.53;;;17.70;96.10;;;;;;10437247;28;20544;-67
2023/05/08 10:44:35;;;;;;;12.50;7.90;;;17.60;96.00;;;;;;10435938;28;20025;-66
2023/05/08 10:49:43;;;;;;;11.32;8.20;;;17.80;96.00;;;;;;10433212;28;20033;-68
2023/05/08 10:54:55;;;;;;;;;;;17.80;96.00;;;;;;10435113;28;20051;-68
2023/05/08 10:59:55;;;;;;;11.77;7.90;;;17.90;96.30;;;;;;10439066;28;19908;-66
2023/05/08 11:05:16;;;;;;;14.52;8.05;;;17.90;96.00;;;;;;10440461;28;20025;-66
2023/05/08 11:10:17;;;;;;;11.85;8.07;;;18.00;96.20;;;;;;10443544;28;20039;-67
2023/05/08 11:15:38;;;;;;;12.20;7.82;;;18.00;96.10;;;;;;10448942;28;20520;-67
2023/05/08 11:21:10;;;;;;;12.88;8.55;;;18.10;96.20;;;;;;10451104;28;20070;-66
2023/05/08 11:26:13;;;;;;;11.55;7.90;;;18.10;96.40;;;;;;10439439;28;20029;-66
2023/05/08 11:31:14;;;;;;;13.32;8.48;;;18.20;96.10;;;;;;10446157;28;20025;-67
2023/05/08 11:36:21;;;;;;;11.75;7.97;;;18.30;96.10;;;;;;10447688;28;20028;-67
2023/05/08 11:41:23;;;;;;;11.77;7.75;;;18.30;96.20;;;;;;10440834;28;20374;-67
2023/05/08 11:46:38;;;;;;;15.57;9.93;;;18.30;96.20;;;;;;10450927;28;20052;-67
2023/05/08 11:51:43;;;;;;;13.90;8.55;;;18.40;96.50;;;;;;10450479;28;20030;-66
2023/05/08 11:56:48;;;;;;;12.88;8.50;;;18.50;96.20;;;;;;10439754;28;20025;-66
2023/05/08 12:01:49;;;;;;;13.30;8.73;;;18.60;96.20;;;;;;10444264;28;20028;-66
2023/05/08 12:06:56;;;;;;;12.63;8.63;;;18.80;96.10;;;;;;10442627;28;20033;-66
2023/05/08 12:11:57;;;;;;;15.07;9.13;;;18.90;96.10;;;;;;10441672;28;20435;-67
2023/05/08 12:17:02;;;;;;;12.15;8.38;;;19.00;96.00;;;;;;10445674;28;20566;-67
2023/05/08 12:22:03;;;;;;;12.82;8.23;;;19.00;96.10;;;;;;10439686;28;20027;-68
2023/05/08 12:27:03;;;;;;;12.65;8.85;;;19.10;96.10;;;;;;10445482;28;20020;-67
2023/05/08 12:32:04;;;;;;;14.27;8.55;;;19.10;96.20;;;;;;10441310;28;20104;-66
2023/05/08 12:37:05;;;;;;;20.23;12.00;;;19.10;96.30;;;;;;10433864;28;20110;-72
2023/05/08 12:42:06;;;;;;;26.02;15.35;;;19.40;96.50;;;;;;10439039;28;20103;-71
2023/05/08 12:47:06;;;;;;;24.90;15.05;;;19.80;96.30;;;;;;10437074;28;20473;-72
2023/05/08 12:52:11;;;;;;;24.27;14.23;;;20.00;96.20;;;;;;10432229;28;20017;-70
2023/05/08 12:57:13;;;;;;;24.42;13.70;;;20.20;96.10;;;;;;10437650;28;20033;-74
2023/05/08 13:02:17;;;;;;;25.30;15.15;;;20.00;96.20;;;;;;10435199;28;20029;-72
2023/05/08 13:07:18;;;;;;;24.27;15.60;;;19.90;96.50;;;;;;10432725;28;20445;-73
2023/05/08 13:12:18;;;;;;;30.23;17.65;;;19.80;96.60;;;;;;10435151;28;20112;-71
2023/05/08 13:17:19;;;;;;;27.25;16.42;;;19.90;96.90;;;;;;10442112;28;20029;-70
2023/05/08 13:22:21;;;;;;;24.92;15.65;;;19.80;96.90;;;;;;10440550;28;20083;-71
2023/05/08 13:27:22;;;;;;;29.67;17.23;;;19.80;97.00;;;;;;10440159;28;20072;-72
2023/05/08 13:32:23;;;;;;;29.17;18.42;;;19.80;97.20;;;;;;10440998;28;20029;-73
2023/05/08 13:37:23;;;;;;;33.38;19.88;;;20.00;97.20;;;;;;10444972;28;20033;-72
2023/05/08 13:42:24;;;;;;;37.08;22.38;;;20.00;97.10;;;;;;10433837;28;20023;-72
2023/05/08 13:47:25;;;;;;;33.53;20.60;;;20.20;97.00;;;;;;10450531;28;20025;-74
2023/05/08 13:52:28;;;;;;;34.80;20.42;;;20.30;96.90;;;;;;10451381;28;20031;-73
2023/05/08 13:57:28;;;;;;;38.03;22.88;;;20.30;97.00;;;;;;10437562;28;20044;-71
2023/05/08 14:02:29;;;;;;;42.53;23.50;;;20.50;97.20;;;;;;10438736;28;20048;-73
2023/05/08 14:07:30;;;;;;;48.28;23.52;;;20.80;97.00;;;;;;10433223;28;20072;-73
2023/05/08 14:12:34;;;;;;;38.15;23.80;;;21.10;96.60;;;;;;10442726;28;20032;-70
2023/05/08 14:17:35;;;;;;;41.70;23.90;;;21.30;96.60;;;;;;10442718;28;20047;-70
2023/05/08 14:22:35;;;;;;;40.85;24.50;;;21.30;96.40;;;;;;10444992;28;20033;-70
2023/05/08 14:27:36;;;;;;;43.97;25.65;;;21.10;96.60;;;;;;10436331;28;20032;-70
2023/05/08 14:32:37;;;;;;;40.90;26.45;;;21.10;96.90;;;;;;10441642;28;20021;-70
2023/05/08 14:37:37;;;;;;;38.83;24.23;;;21.10;96.90;;;;;;10433381;28;20470;-71
2023/05/08 14:42:38;;;;;;;40.15;25.45;;;21.30;96.70;;;;;;10432669;28;20072;-70
2023/05/08 14:47:38;;;;;;;42.53;24.98;;;21.50;96.50;;;;;;10437913;28;20107;-70
2023/05/08 14:52:39;;;;;;;40.17;24.42;;;21.70;96.50;;;;;;10443992;28;20029;-71
2023/05/08 14:57:39;;;;;;;36.80;22.73;;;21.70;96.50;;;;;;10443668;28;20025;-71
2023/05/08 15:02:40;;;;;;;33.40;22.02;;;21.70;96.50;;;;;;10439884;28;20029;-71
2023/05/08 15:07:41;;;;;;;36.67;23.85;;;21.70;96.40;;;;;;10452133;28;20031;-71
2023/05/08 15:12:43;;;;;;;37.63;23.95;;;21.70;96.50;;;;;;10428446;28;20044;-71
2023/05/08 15:17:43;;;;;;;34.33;21.42;;;21.60;96.60;;;;;;10424255;28;20033;-71
2023/05/08 15:22:44;;;;;;;29.05;19.75;;;21.60;96.60;;;;;;10434573;28;20025;-73
2023/05/08 15:27:51;;;;;;;34.80;22.65;;;21.80;96.50;;;;;;10435783;28;20025;-70
2023/05/08 15:32:51;;;;;;;34.15;22.83;;;21.70;96.30;;;;;;10435898;28;20534;-71
2023/05/08 15:37:52;;;;;;;37.20;21.75;;;21.70;96.50;;;;;;10436261;28;20029;-70
2023/05/08 15:42:52;;;;;;;32.63;20.98;;;21.70;96.50;;;;;;10440090;28;20059;-70
2023/05/08 15:47:53;;;;;;;32.53;20.00;;;21.60;96.50;;;;;;10425907;28;20033;-70
2023/05/08 15:52:54;;;;;;;31.40;21.42;;;21.70;96.50;;;;;;10439598;28;20053;-71
2023/05/08 15:57:54;;;;;;;34.97;21.67;;;21.70;96.40;;;;;;10439912;28;20040;-71
2023/05/08 16:02:55;;;;;;;34.47;21.00;;;21.70;96.40;;;;;;10442696;28;20226;-71
2023/05/08 16:07:55;;;;;;;32.70;20.50;;;21.70;96.40;;;;;;10459148;28;20033;-71
2023/05/08 16:12:56;;;;;;;32.50;20.92;;;21.50;96.60;;;;;;10446794;28;20381;-70
2023/05/08 16:17:57;;;;;;;30.90;20.67;;;21.30;96.70;;;;;;10435387;28;20502;-70
2023/05/08 16:22:57;;;;;;;34.42;21.48;;;21.10;96.90;;;;;;10444768;28;20033;-70
2023/05/08 16:27:58;;;;;;;29.65;18.77;;;20.90;97.10;;;;;;10437366;28;20032;-70
2023/05/08 16:33:00;;;;;;;32.33;20.13;;;20.80;97.40;;;;;;10444835;28;20535;-69
2023/05/08 16:38:01;;;;;;;29.05;19.17;;;20.80;97.50;;;;;;10443029;28;20051;-69
2023/05/08 16:43:02;;;;;;;29.83;19.23;;;20.80;97.40;;;;;;10443075;28;20025;-70
2023/05/08 16:48:03;;;;;;;31.80;20.50;;;20.60;97.40;;;;;;10432310;28;20021;-71
2023/05/08 16:53:03;;;;;;;31.92;21.63;;;20.70;97.50;;;;;;10444126;28;20060;-70
2023/05/08 16:58:05;;;;;;;36.60;22.23;;;20.80;97.70;;;;;;10445131;28;20024;-70
2023/05/08 17:03:06;;;;;;;31.92;19.80;;;20.70;97.70;;;;;;10442036;28;20024;-69
2023/05/08 17:08:07;;;;;;;34.15;21.90;;;20.50;97.80;;;;;;10449697;28;20013;-73
2023/05/08 17:13:10;;;;;;;32.15;20.63;;;20.50;97.80;;;;;;10449936;28;20557;-68
2023/05/08 17:18:10;;;;;;;32.78;19.95;;;20.40;97.90;;;;;;10441749;28;20090;-69
2023/05/08 17:23:11;;;;;;;32.75;20.23;;;20.40;97.90;;;;;;10441109;28;20021;-70
2023/05/08 17:28:11;;;;;;;28.20;18.42;;;20.40;97.90;;;;;;10438480;28;20086;-68
2023/05/08 17:33:12;;;;;;;28.02;18.65;;;20.40;98.00;;;;;;10440798;28;20029;-69
2023/05/08 17:38:13;;;;;;;27.58;17.48;;;20.50;97.80;;;;;;10433811;28;20522;-68
2023/05/08 17:43:13;;;;;;;25.02;16.73;;;20.50;97.80;;;;;;10441499;28;20488;-68
2023/05/08 17:48:14;;;;;;;24.92;15.93;;;20.50;97.90;;;;;;10426530;28;20409;-68
2023/05/08 17:53:14;;;;;;;25.73;16.75;;;20.40;97.90;;;;;;10431211;28;20033;-69
2023/05/08 17:58:15;;;;;;;23.85;15.85;;;20.40;97.90;;;;;;10439951;28;20091;-68
2023/05/08 18:03:16;;;;;;;21.60;14.35;;;20.30;97.90;;;;;;10437838;28;20262;-67
2023/05/08 18:08:16;;;;;;;36.80;20.42;;;20.20;98.00;;;;;;10437325;28;20024;-72
2023/05/08 18:13:17;;;;;;;28.55;18.08;;;20.20;98.20;;;;;;10437689;28;20153;-73
2023/05/08 18:18:17;;;;;;;26.63;18.23;;;20.00;98.50;;;;;;10435851;28;20107;-69
2023/05/08 18:23:18;;;;;;;25.35;17.17;;;20.00;98.50;;;;;;10442054;28;20025;-69
2023/05/08 18:28:20;;;;;;;25.60;15.95;;;20.00;98.50;;;;;;10436813;28;20044;-69
2023/05/08 18:33:20;;;;;;;27.23;16.40;;;20.00;98.50;;;;;;10443663;28;20017;-69
2023/05/08 18:38:21;;;;;;;25.50;16.52;;;20.00;98.40;;;;;;10434004;28;20529;-69
2023/05/08 18:43:21;;;;;;;23.75;15.77;;;20.00;98.40;;;;;;10437816;28;20032;-69
2023/05/08 18:48:24;;;;;;;23.98;14.55;;;20.00;98.40;;;;;;10436545;28;20170;-69
2023/05/08 18:53:24;;;;;;;20.08;13.77;;;20.00;98.40;;;;;;10435189;28;20047;-69
2023/05/08 18:58:25;;;;;;;19.95;13.23;;;20.00;98.40;;;;;;10442305;28;20021;-69
2023/05/08 19:03:25;;;;;;;19.80;13.18;;;19.90;98.40;;;;;;10435703;28;20448;-68
2023/05/08 19:08:26;;;;;;;18.08;12.60;;;19.90;98.40;;;;;;10435961;28;20037;-70
2023/05/08 19:13:36;;;;;;;17.73;12.60;;;19.90;98.40;;;;;;10437311;28;20025;-68
2023/05/08 19:18:36;;;;;;;18.25;12.88;;;19.90;98.50;;;;;;10437375;28;20050;-67
2023/05/08 19:23:37;;;;;;;18.15;12.85;;;19.80;98.40;;;;;;10444276;28;20473;-67
2023/05/08 19:28:37;;;;;;;18.80;12.70;;;19.80;98.50;;;;;;10440362;28;20021;-67
2023/05/08 19:33:38;;;;;;;18.05;12.38;;;19.80;98.50;;;;;;10445018;28;20025;-67
2023/05/08 19:38:39;;;;;;;17.33;11.68;;;19.70;98.50;;;;;;10443526;28;20032;-67
2023/05/08 19:43:39;;;;;;;18.27;12.05;;;19.70;98.50;;;;;;10438649;28;20560;-67
2023/05/08 19:48:40;;;;;;;20.88;12.80;;;19.70;98.50;;;;;;10440187;28;20037;-66
2023/05/08 19:53:41;;;;;;;19.55;12.60;;;19.60;98.50;;;;;;10446945;28;20395;-66
2023/05/08 19:58:47;;;;;;;17.80;11.90;;;19.70;98.50;;;;;;10439028;28;20096;-66
2023/05/08 20:03:47;;;;;;;17.75;11.93;;;19.60;98.50;;;;;;10442585;28;20469;-67
2023/05/08 20:08:48;;;;;;;19.77;12.32;;;19.50;98.50;;;;;;10444291;28;20135;-68
2023/05/08 20:13:48;;;;;;;20.77;12.32;;;19.50;98.50;;;;;;10439607;28;20473;-67
2023/05/08 20:18:49;;;;;;;18.67;11.73;;;19.50;98.60;;;;;;10442784;28;20072;-66
2023/05/08 20:23:49;;;;;;;19.17;11.35;;;19.40;98.60;;;;;;10433306;28;20353;-67
2023/05/08 20:28:50;;;;;;;19.67;11.63;;;19.40;98.60;;;;;;10441695;28;20025;-66
2023/05/08 20:33:51;;;;;;;19.35;11.75;;;19.40;98.60;;;;;;10443237;28;20013;-67
2023/05/08 20:38:51;;;;;;;20.70;11.95;;;19.30;98.60;;;;;;10437871;28;20037;-66
2023/05/08 20:43:52;;;;;;;18.40;11.23;;;19.30;98.70;;;;;;10442330;28;20550;-66
2023/05/08 20:48:53;;;;;;;20.00;11.88;;;19.30;98.70;;;;;;10444597;28;20025;-67
2023/05/08 20:53:53;;;;;;;20.50;11.95;;;19.30;98.70;;;;;;10448364;28;20021;-66
2023/05/08 20:58:54;;;;;;;19.52;11.90;;;19.20;98.70;;;;;;10445083;28;20112;-66
2023/05/08 21:04:08;;;;;;;18.35;11.38;;;19.20;98.70;;;;;;10443992;28;20044;-66
2023/05/08 21:09:09;;;;;;;21.38;11.35;;;19.20;98.70;;;;;;10450383;28;20500;-66
2023/05/08 21:14:10;;;;;;;19.50;11.70;;;19.10;98.70;;;;;;10447420;28;20404;-66
2023/05/08 21:19:15;;;;;;;19.45;11.43;;;19.10;98.80;;;;;;10433909;28;20087;-66
2023/05/08 21:24:16;;;;;;;20.05;10.88;;;19.10;98.80;;;;;;10446059;28;20040;-66
2023/05/08 21:29:16;;;;;;;19.33;11.40;;;19.10;98.80;;;;;;10441525;28;20032;-66
2023/05/08 21:34:20;;;;;;;19.27;11.05;;;19.00;98.80;;;;;;10426292;28;20033;-66
2023/05/08 21:39:20;;;;;;;21.55;12.60;;;19.00;98.80;;;;;;10438992;28;20033;-66
2023/05/08 21:44:21;;;;;;;18.92;10.98;;;19.00;98.80;;;;;;10434173;28;20075;-66
2023/05/08 21:49:21;;;;;;;20.33;11.20;;;18.90;98.80;;;;;;10441378;28;20108;-66
2023/05/08 21:54:23;;;;;;;17.20;10.60;;;19.00;98.80;;;;;;10439416;28;20087;-66
2023/05/08 21:59:23;;;;;;;18.70;10.80;;;18.90;98.80;;;;;;10434312;28;20035;-67
2023/05/08 22:04:24;;;;;;;17.88;10.65;;;18.90;98.80;;;;;;10443745;28;20531;-66
2023/05/08 22:09:25;;;;;;;19.55;10.40;;;18.80;98.80;;;;;;10436122;28;20021;-66
2023/05/08 22:14:25;;;;;;;18.33;10.85;;;18.80;98.80;;;;;;10428106;28;20030;-68
2023/05/08 22:19:26;;;;;;;17.50;10.40;;;18.80;98.80;;;;;;10433363;28;20025;-68
2023/05/08 22:24:27;;;;;;;17.90;10.32;;;18.80;98.80;;;;;;10437445;28;20542;-68
2023/05/08 22:29:27;;;;;;;20.02;11.23;;;18.80;98.80;;;;;;10430432;28;20021;-68
2023/05/08 22:34:28;;;;;;;18.75;10.65;;;18.70;98.80;;;;;;10425486;28;20017;-69
2023/05/08 22:39:29;;;;;;;16.98;10.77;;;18.70;98.80;;;;;;10432526;28;20116;-68
2023/05/08 22:44:29;;;;;;;18.48;10.63;;;19.10;99.00;;;;;;10426962;28;20070;-68
2023/05/08 22:49:30;;;;;;;17.48;10.43;;;18.70;98.90;;;;;;10435112;28;20037;-68
2023/05/08 22:54:30;;;;;;;18.85;10.85;;;18.60;98.90;;;;;;10432817;28;20079;-68
2023/05/08 22:59:31;;;;;;;17.83;10.18;;;18.70;98.90;;;;;;10437244;28;20310;-68
2023/05/08 23:04:32;;;;;;;20.58;10.55;;;18.60;98.90;;;;;;10443306;28;20053;-69
2023/05/08 23:09:32;;;;;;;17.08;10.35;;;18.60;98.90;;;;;;10449742;28;20029;-68
2023/05/08 23:14:33;;;;;;;18.40;10.27;;;18.50;98.90;;;;;;10439925;28;20025;-68
2023/05/08 23:19:33;;;;;;;19.35;10.48;;;18.50;98.90;;;;;;10441867;28;20037;-69
2023/05/08 23:24:34;;;;;;;16.15;9.85;;;18.50;98.90;;;;;;10438146;28;20021;-68
2023/05/08 23:29:35;;;;;;;18.92;10.38;;;18.50;98.90;;;;;;10447614;28;20407;-68
2023/05/08 23:34:36;;;;;;;16.27;9.90;;;18.50;98.90;;;;;;10441087;28;20021;-66
2023/05/08 23:39:39;;;;;;;20.42;10.43;;;18.50;98.90;;;;;;10443393;28;20024;-66
2023/05/08 23:44:40;;;;;;;17.77;10.40;;;18.40;98.90;;;;;;10444116;28;20159;-66
2023/05/08 23:49:41;;;;;;;20.80;10.75;;;18.40;98.90;;;;;;10448133;28;20094;-66
2023/05/08 23:54:41;;;;;;;18.98;9.60;;;18.40;98.90;;;;;;10433858;28;20034;-66
2023/05/08 23:59:42;;;;;;;19.40;10.45;;;18.40;98.90;;;;;;10438637;28;20040;-66
